sensor_id;sensor_type;location;lat;lon;timestamp;temperature;humidity
4399;DHT22;2213;49.720;7.296;2023-07-29T00:01:17;18.70;99.90
4399;DHT22;2213;49.720;7.296;2023-07-29T00:03:48;18.70;99.90
4399;DHT22;2213;49.720;7.296;2023-07-29T00:06:18;18.70;99.90
4399;DHT22;2213;49.720;7.296;2023-07-29T00:08:48;18.70;99.90
4399;DHT22;2213;49.720;7.296;2023-07-29T00:11:21;18.70;99.90
4399;DHT22;2213;49.720;7.296;2023-07-29T00:13:50;18.70;99.90
4399;DHT22;2213;49.720;7.296;2023-07-29T00:16:20;18.80;99.90
4399;DHT22;2213;49.720;7.296;2023-07-29T00:18:51;18.70;99.90
4399;DHT22;2213;49.720;7.296;2023-07-29T00:21:22;18.70;99.90
4399;DHT22;2213;49.720;7.296;2023-07-29T00:23:52;18.70;99.90
4399;DHT22;2213;49.720;7.296;2023-07-29T00:26:25;18.70;99.90
4399;DHT22;2213;49.720;7.296;2023-07-29T00:28:56;18.70;99.90
4399;DHT22;2213;49.720;7.296;2023-07-29T00:31:27;18.70;99.90
4399;DHT22;2213;49.720;7.296;2023-07-29T00:33:57;18.70;99.90
4399;DHT22;2213;49.720;7.296;2023-07-29T00:36:26;18.70;99.90
4399;DHT22;2213;49.720;7.296;2023-07-29T00:38:56;18.70;99.90
4399;DHT22;2213;49.720;7.296;2023-07-29T00:41:28;18.70;99.90
4399;DHT22;2213;49.720;7.296;2023-07-29T00:43:58;18.70;99.90
4399;DHT22;2213;49.720;7.296;2023-07-29T00:46:28;18.70;99.90
4399;DHT22;2213;49.720;7.296;2023-07-29T00:48:59;18.70;99.90
4399;DHT22;2213;49.720;7.296;2023-07-29T00:51:29;18.70;99.90
4399;DHT22;2213;49.720;7.296;2023-07-29T00:54:00;18.70;99.90
4399;DHT22;2213;49.720;7.296;2023-07-29T00:56:31;18.70;99.90
4399;DHT22;2213;49.720;7.296;2023-07-29T00:59:01;18.70;99.90
4399;DHT22;2213;49.720;7.296;2023-07-29T01:01:33;18.70;99.90
4399;DHT22;2213;49.720;7.296;2023-07-29T01:04:01;18.70;99.90
4399;DHT22;2213;49.720;7.296;2023-07-29T01:06:40;18.70;99.90
4399;DHT22;2213;49.720;7.296;2023-07-29T01:09:22;18.70;99.90
4399;DHT22;2213;49.720;7.296;2023-07-29T01:12:07;18.70;99.90
4399;DHT22;2213;49.720;7.296;2023-07-29T01:14:51;18.70;99.90
4399;DHT22;2213;49.720;7.296;2023-07-29T01:17:32;18.70;99.90
4399;DHT22;2213;49.720;7.296;2023-07-29T01:20:08;18.70;99.90
4399;DHT22;2213;49.720;7.296;2023-07-29T01:22:42;18.70;99.90
4399;DHT22;2213;49.720;7.296;2023-07-29T01:25:14;18.70;99.90
4399;DHT22;2213;49.720;7.296;2023-07-29T01:27:45;18.70;99.90
4399;DHT22;2213;49.720;7.296;2023-07-29T01:30:17;18.60;99.90
4399;DHT22;2213;49.720;7.296;2023-07-29T01:32:52;18.60;99.90
4399;DHT22;2213;49.720;7.296;2023-07-29T01:35:32;18.70;99.90
4399;DHT22;2213;49.720;7.296;2023-07-29T01:38:13;18.70;99.90
4399;DHT22;2213;49.720;7.296;2023-07-29T01:40:48;18.70;99.90
4399;DHT22;2213;49.720;7.296;2023-07-29T01:43:22;18.70;99.90
4399;DHT22;2213;49.720;7.296;2023-07-29T01:45:53;18.70;99.90
4399;DHT22;2213;49.720;7.296;2023-07-29T01:48:24;18.70;99.90
4399;DHT22;2213;49.720;7.296;2023-07-29T01:50:55;18.70;99.90
4399;DHT22;2213;49.720;7.296;2023-07-29T01:53:25;18.70;99.90
4399;DHT22;2213;49.720;7.296;2023-07-29T01:55:57;18.60;99.90
4399;DHT22;2213;49.720;7.296;2023-07-29T01:58:26;18.60;99.90
4399;DHT22;2213;49.720;7.296;2023-07-29T02:00:57;18.60;99.90
4399;DHT22;2213;49.720;7.296;2023-07-29T02:03:27;18.60;99.90
4399;DHT22;2213;49.720;7.296;2023-07-29T02:05:56;18.60;99.90
4399;DHT22;2213;49.720;7.296;2023-07-29T02:08:26;18.60;99.90
4399;DHT22;2213;49.720;7.296;2023-07-29T02:10:57;18.60;99.90
4399;DHT22;2213;49.720;7.296;2023-07-29T02:13:27;18.60;99.90
4399;DHT22;2213;49.720;7.296;2023-07-29T02:15:58;18.60;99.90
4399;DHT22;2213;49.720;7.296;2023-07-29T02:18:28;18.60;99.90
4399;DHT22;2213;49.720;7.296;2023-07-29T02:20:59;18.60;99.90
4399;DHT22;2213;49.720;7.296;2023-07-29T02:23:29;18.50;99.90
4399;DHT22;2213;49.720;7.296;2023-07-29T02:26:02;18.50;99.90
4399;DHT22;2213;49.720;7.296;2023-07-29T02:28:33;18.50;99.90
4399;DHT22;2213;49.720;7.296;2023-07-29T02:31:15;18.50;99.90
4399;DHT22;2213;49.720;7.296;2023-07-29T02:33:46;18.50;99.90
4399;DHT22;2213;49.720;7.296;2023-07-29T02:36:17;18.50;99.90
4399;DHT22;2213;49.720;7.296;2023-07-29T02:38:46;18.50;99.90
4399;DHT22;2213;49.720;7.296;2023-07-29T02:41:18;18.40;99.90
4399;DHT22;2213;49.720;7.296;2023-07-29T02:43:49;18.40;99.90
4399;DHT22;2213;49.720;7.296;2023-07-29T02:46:19;18.40;99.90
4399;DHT22;2213;49.720;7.296;2023-07-29T02:48:50;18.40;99.90
4399;DHT22;2213;49.720;7.296;2023-07-29T02:51:20;18.40;99.90
4399;DHT22;2213;49.720;7.296;2023-07-29T02:53:50;18.40;99.90
4399;DHT22;2213;49.720;7.296;2023-07-29T02:56:22;18.40;99.90
4399;DHT22;2213;49.720;7.296;2023-07-29T02:58:51;18.40;99.90
4399;DHT22;2213;49.720;7.296;2023-07-29T03:01:23;18.30;99.90
4399;DHT22;2213;49.720;7.296;2023-07-29T03:03:53;18.30;99.90
4399;DHT22;2213;49.720;7.296;2023-07-29T03:06:23;18.20;99.90
4399;DHT22;2213;49.720;7.296;2023-07-29T03:08:54;18.20;99.90
4399;DHT22;2213;49.720;7.296;2023-07-29T03:11:26;18.20;99.90
4399;DHT22;2213;49.720;7.296;2023-07-29T03:13:57;18.10;99.90
4399;DHT22;2213;49.720;7.296;2023-07-29T03:16:29;18.20;99.90
4399;DHT22;2213;49.720;7.296;2023-07-29T03:18:59;18.10;99.90
4399;DHT22;2213;49.720;7.296;2023-07-29T03:21:31;18.10;99.90
4399;DHT22;2213;49.720;7.296;2023-07-29T03:24:01;18.10;99.90
4399;DHT22;2213;49.720;7.296;2023-07-29T03:26:32;18.10;99.90
4399;DHT22;2213;49.720;7.296;2023-07-29T03:29:03;18.10;99.90
4399;DHT22;2213;49.720;7.296;2023-07-29T03:31:33;18.10;99.90
4399;DHT22;2213;49.720;7.296;2023-07-29T03:34:04;18.10;99.90
4399;DHT22;2213;49.720;7.296;2023-07-29T03:36:33;18.10;99.90
4399;DHT22;2213;49.720;7.296;2023-07-29T03:39:03;18.00;99.90
4399;DHT22;2213;49.720;7.296;2023-07-29T03:41:35;18.00;99.90
4399;DHT22;2213;49.720;7.296;2023-07-29T03:44:05;18.00;99.90
4399;DHT22;2213;49.720;7.296;2023-07-29T03:46:35;18.00;99.90
4399;DHT22;2213;49.720;7.296;2023-07-29T03:49:06;18.00;99.90
4399;DHT22;2213;49.720;7.296;2023-07-29T03:51:37;18.00;99.90
4399;DHT22;2213;49.720;7.296;2023-07-29T03:54:08;18.00;99.90
4399;DHT22;2213;49.720;7.296;2023-07-29T03:56:40;18.00;99.90
4399;DHT22;2213;49.720;7.296;2023-07-29T03:59:10;18.00;99.90
4399;DHT22;2213;49.720;7.296;2023-07-29T04:01:41;17.90;99.90
4399;DHT22;2213;49.720;7.296;2023-07-29T04:04:11;17.90;99.90
4399;DHT22;2213;49.720;7.296;2023-07-29T04:06:41;17.90;99.90
4399;DHT22;2213;49.720;7.296;2023-07-29T04:09:10;17.80;99.90
4399;DHT22;2213;49.720;7.296;2023-07-29T04:11:41;17.90;99.90
4399;DHT22;2213;49.720;7.296;2023-07-29T04:14:11;17.90;99.90
4399;DHT22;2213;49.720;7.296;2023-07-29T04:16:40;17.90;99.90
4399;DHT22;2213;49.720;7.296;2023-07-29T04:19:10;17.90;99.90
4399;DHT22;2213;49.720;7.296;2023-07-29T04:21:39;17.90;99.90
4399;DHT22;2213;49.720;7.296;2023-07-29T04:24:11;17.80;99.90
4399;DHT22;2213;49.720;7.296;2023-07-29T04:26:43;17.90;99.90
4399;DHT22;2213;49.720;7.296;2023-07-29T04:29:13;17.90;99.90
4399;DHT22;2213;49.720;7.296;2023-07-29T04:31:43;17.90;99.90
4399;DHT22;2213;49.720;7.296;2023-07-29T04:34:13;17.90;99.90
4399;DHT22;2213;49.720;7.296;2023-07-29T04:36:44;17.90;99.90
4399;DHT22;2213;49.720;7.296;2023-07-29T04:39:13;17.90;99.90
4399;DHT22;2213;49.720;7.296;2023-07-29T04:41:44;17.90;99.90
4399;DHT22;2213;49.720;7.296;2023-07-29T04:44:15;17.90;99.90
4399;DHT22;2213;49.720;7.296;2023-07-29T04:46:46;17.90;99.90
4399;DHT22;2213;49.720;7.296;2023-07-29T04:49:16;17.80;99.90
4399;DHT22;2213;49.720;7.296;2023-07-29T04:51:45;17.90;99.90
4399;DHT22;2213;49.720;7.296;2023-07-29T04:54:16;18.10;99.90
4399;DHT22;2213;49.720;7.296;2023-07-29T04:56:49;18.10;99.90
4399;DHT22;2213;49.720;7.296;2023-07-29T04:59:18;18.10;99.90
4399;DHT22;2213;49.720;7.296;2023-07-29T05:01:48;18.10;99.90
4399;DHT22;2213;49.720;7.296;2023-07-29T05:04:21;18.10;99.90
4399;DHT22;2213;49.720;7.296;2023-07-29T05:06:53;18.20;99.90
4399;DHT22;2213;49.720;7.296;2023-07-29T05:09:23;18.20;99.90
4399;DHT22;2213;49.720;7.296;2023-07-29T05:11:56;18.20;99.90
4399;DHT22;2213;49.720;7.296;2023-07-29T05:14:27;18.20;99.90
4399;DHT22;2213;49.720;7.296;2023-07-29T05:16:57;18.20;99.90
4399;DHT22;2213;49.720;7.296;2023-07-29T05:19:28;18.20;99.90
4399;DHT22;2213;49.720;7.296;2023-07-29T05:21:57;18.20;99.90
4399;DHT22;2213;49.720;7.296;2023-07-29T05:24:29;18.20;99.90
4399;DHT22;2213;49.720;7.296;2023-07-29T05:27:00;18.20;99.90
4399;DHT22;2213;49.720;7.296;2023-07-29T05:29:32;18.20;99.90
4399;DHT22;2213;49.720;7.296;2023-07-29T05:32:02;18.20;99.90
4399;DHT22;2213;49.720;7.296;2023-07-29T05:34:33;18.20;99.90
4399;DHT22;2213;49.720;7.296;2023-07-29T05:37:05;18.20;99.90
4399;DHT22;2213;49.720;7.296;2023-07-29T05:39:35;18.20;99.90
4399;DHT22;2213;49.720;7.296;2023-07-29T05:42:07;18.30;99.90
4399;DHT22;2213;49.720;7.296;2023-07-29T05:44:38;18.30;99.90
4399;DHT22;2213;49.720;7.296;2023-07-29T05:47:09;18.20;99.90
4399;DHT22;2213;49.720;7.296;2023-07-29T05:49:38;18.30;99.90
4399;DHT22;2213;49.720;7.296;2023-07-29T05:52:10;18.30;99.90
4399;DHT22;2213;49.720;7.296;2023-07-29T05:54:39;18.30;99.90
4399;DHT22;2213;49.720;7.296;2023-07-29T05:57:12;18.20;99.90
4399;DHT22;2213;49.720;7.296;2023-07-29T05:59:41;18.20;99.90
4399;DHT22;2213;49.720;7.296;2023-07-29T06:02:12;18.10;99.90
4399;DHT22;2213;49.720;7.296;2023-07-29T06:04:42;18.00;99.90
4399;DHT22;2213;49.720;7.296;2023-07-29T06:07:11;18.10;99.90
4399;DHT22;2213;49.720;7.296;2023-07-29T06:09:40;18.10;99.90
4399;DHT22;2213;49.720;7.296;2023-07-29T06:12:11;18.10;99.90
4399;DHT22;2213;49.720;7.296;2023-07-29T06:14:40;18.20;99.90
4399;DHT22;2213;49.720;7.296;2023-07-29T06:17:10;18.10;99.90
4399;DHT22;2213;49.720;7.296;2023-07-29T06:19:40;18.10;99.90
4399;DHT22;2213;49.720;7.296;2023-07-29T06:22:10;18.10;99.90
4399;DHT22;2213;49.720;7.296;2023-07-29T06:24:39;18.10;99.90
4399;DHT22;2213;49.720;7.296;2023-07-29T06:27:11;18.10;99.90
4399;DHT22;2213;49.720;7.296;2023-07-29T06:29:41;18.10;99.90
4399;DHT22;2213;49.720;7.296;2023-07-29T06:32:11;18.10;99.90
4399;DHT22;2213;49.720;7.296;2023-07-29T06:34:41;18.10;99.90
4399;DHT22;2213;49.720;7.296;2023-07-29T06:37:12;18.10;99.90
4399;DHT22;2213;49.720;7.296;2023-07-29T06:39:41;18.10;99.90
4399;DHT22;2213;49.720;7.296;2023-07-29T06:42:11;18.20;99.90
4399;DHT22;2213;49.720;7.296;2023-07-29T06:44:42;18.10;99.90
4399;DHT22;2213;49.720;7.296;2023-07-29T06:47:13;18.10;99.90
4399;DHT22;2213;49.720;7.296;2023-07-29T06:49:43;18.20;99.90
4399;DHT22;2213;49.720;7.296;2023-07-29T06:52:15;18.20;99.90
4399;DHT22;2213;49.720;7.296;2023-07-29T06:54:44;18.30;99.90
4399;DHT22;2213;49.720;7.296;2023-07-29T06:57:15;18.30;99.90
4399;DHT22;2213;49.720;7.296;2023-07-29T06:59:45;18.30;99.90
4399;DHT22;2213;49.720;7.296;2023-07-29T07:02:15;18.30;99.90
4399;DHT22;2213;49.720;7.296;2023-07-29T07:04:46;18.40;99.90
4399;DHT22;2213;49.720;7.296;2023-07-29T07:07:18;18.30;99.90
4399;DHT22;2213;49.720;7.296;2023-07-29T07:09:48;18.30;99.90
4399;DHT22;2213;49.720;7.296;2023-07-29T07:12:20;18.40;99.90
4399;DHT22;2213;49.720;7.296;2023-07-29T07:14:51;18.40;99.90
4399;DHT22;2213;49.720;7.296;2023-07-29T07:17:20;18.50;99.90
4399;DHT22;2213;49.720;7.296;2023-07-29T07:19:51;18.50;99.90
4399;DHT22;2213;49.720;7.296;2023-07-29T07:22:20;18.50;99.90
4399;DHT22;2213;49.720;7.296;2023-07-29T07:24:51;18.50;99.90
4399;DHT22;2213;49.720;7.296;2023-07-29T07:27:23;18.60;99.90
4399;DHT22;2213;49.720;7.296;2023-07-29T07:29:52;18.60;99.90
4399;DHT22;2213;49.720;7.296;2023-07-29T07:32:20;18.50;99.90
4399;DHT22;2213;49.720;7.296;2023-07-29T07:34:49;18.50;99.90
4399;DHT22;2213;49.720;7.296;2023-07-29T07:37:19;18.50;99.90
4399;DHT22;2213;49.720;7.296;2023-07-29T07:39:50;18.60;99.90
4399;DHT22;2213;49.720;7.296;2023-07-29T07:42:20;18.60;99.90
4399;DHT22;2213;49.720;7.296;2023-07-29T07:44:52;18.70;99.90
4399;DHT22;2213;49.720;7.296;2023-07-29T07:47:23;18.80;99.90
4399;DHT22;2213;49.720;7.296;2023-07-29T07:49:53;18.80;99.90
4399;DHT22;2213;49.720;7.296;2023-07-29T07:52:24;18.90;99.90
4399;DHT22;2213;49.720;7.296;2023-07-29T07:54:54;18.90;99.90
4399;DHT22;2213;49.720;7.296;2023-07-29T07:57:25;18.90;99.90
4399;DHT22;2213;49.720;7.296;2023-07-29T07:59:56;18.90;99.90
4399;DHT22;2213;49.720;7.296;2023-07-29T08:02:26;19.00;99.90
4399;DHT22;2213;49.720;7.296;2023-07-29T08:04:56;19.10;99.90
4399;DHT22;2213;49.720;7.296;2023-07-29T08:07:26;19.10;99.90
4399;DHT22;2213;49.720;7.296;2023-07-29T08:09:56;19.10;99.90
4399;DHT22;2213;49.720;7.296;2023-07-29T08:12:27;19.20;99.90
4399;DHT22;2213;49.720;7.296;2023-07-29T08:14:57;19.20;99.90
4399;DHT22;2213;49.720;7.296;2023-07-29T08:17:29;19.30;99.90
4399;DHT22;2213;49.720;7.296;2023-07-29T08:19:59;19.30;99.90
4399;DHT22;2213;49.720;7.296;2023-07-29T08:22:28;19.30;99.90
4399;DHT22;2213;49.720;7.296;2023-07-29T08:24:58;19.40;99.90
4399;DHT22;2213;49.720;7.296;2023-07-29T08:27:32;19.40;99.90
4399;DHT22;2213;49.720;7.296;2023-07-29T08:30:03;19.40;99.90
4399;DHT22;2213;49.720;7.296;2023-07-29T08:32:36;19.60;99.90
4399;DHT22;2213;49.720;7.296;2023-07-29T08:35:06;19.60;99.90
4399;DHT22;2213;49.720;7.296;2023-07-29T08:37:36;19.60;99.90
4399;DHT22;2213;49.720;7.296;2023-07-29T08:40:10;19.60;99.90
4399;DHT22;2213;49.720;7.296;2023-07-29T08:42:45;19.80;99.90
4399;DHT22;2213;49.720;7.296;2023-07-29T08:45:18;19.80;99.90
4399;DHT22;2213;49.720;7.296;2023-07-29T08:47:50;19.80;99.90
4399;DHT22;2213;49.720;7.296;2023-07-29T08:50:27;19.90;99.90
4399;DHT22;2213;49.720;7.296;2023-07-29T08:53:00;19.80;99.90
4399;DHT22;2213;49.720;7.296;2023-07-29T08:55:32;19.90;99.90
4399;DHT22;2213;49.720;7.296;2023-07-29T08:58:05;20.00;99.90
4399;DHT22;2213;49.720;7.296;2023-07-29T09:00:36;20.10;99.90
4399;DHT22;2213;49.720;7.296;2023-07-29T09:03:06;20.20;99.90
4399;DHT22;2213;49.720;7.296;2023-07-29T09:05:37;20.20;99.90
4399;DHT22;2213;49.720;7.296;2023-07-29T09:08:07;20.20;99.90
4399;DHT22;2213;49.720;7.296;2023-07-29T09:10:40;20.30;99.90
4399;DHT22;2213;49.720;7.296;2023-07-29T09:13:10;20.40;99.90
4399;DHT22;2213;49.720;7.296;2023-07-29T09:16:05;20.30;99.90
4399;DHT22;2213;49.720;7.296;2023-07-29T09:18:34;20.30;99.90
4399;DHT22;2213;49.720;7.296;2023-07-29T09:21:04;20.40;99.90
4399;DHT22;2213;49.720;7.296;2023-07-29T09:23:39;20.40;99.90
4399;DHT22;2213;49.720;7.296;2023-07-29T09:26:09;20.30;99.90
4399;DHT22;2213;49.720;7.296;2023-07-29T09:28:41;20.40;99.90
4399;DHT22;2213;49.720;7.296;2023-07-29T09:31:19;20.40;99.90
4399;DHT22;2213;49.720;7.296;2023-07-29T09:33:50;20.40;99.90
4399;DHT22;2213;49.720;7.296;2023-07-29T09:36:25;20.40;99.90
4399;DHT22;2213;49.720;7.296;2023-07-29T09:38:57;20.40;99.90
4399;DHT22;2213;49.720;7.296;2023-07-29T09:41:29;20.40;99.90
4399;DHT22;2213;49.720;7.296;2023-07-29T09:44:00;20.40;99.90
4399;DHT22;2213;49.720;7.296;2023-07-29T09:46:35;20.60;99.90
4399;DHT22;2213;49.720;7.296;2023-07-29T09:49:07;20.60;99.90
4399;DHT22;2213;49.720;7.296;2023-07-29T09:51:38;20.50;99.90
4399;DHT22;2213;49.720;7.296;2023-07-29T09:54:08;20.60;99.90
4399;DHT22;2213;49.720;7.296;2023-07-29T09:56:42;20.70;99.90
4399;DHT22;2213;49.720;7.296;2023-07-29T09:59:19;20.80;99.90
4399;DHT22;2213;49.720;7.296;2023-07-29T10:01:50;21.00;99.90
4399;DHT22;2213;49.720;7.296;2023-07-29T10:04:20;21.20;99.90
4399;DHT22;2213;49.720;7.296;2023-07-29T10:06:52;21.20;99.90
4399;DHT22;2213;49.720;7.296;2023-07-29T10:09:23;21.20;99.90
4399;DHT22;2213;49.720;7.296;2023-07-29T10:11:54;21.10;99.90
4399;DHT22;2213;49.720;7.296;2023-07-29T10:14:28;21.00;99.90
4399;DHT22;2213;49.720;7.296;2023-07-29T10:17:01;21.00;99.90
4399;DHT22;2213;49.720;7.296;2023-07-29T10:19:34;21.00;99.90
4399;DHT22;2213;49.720;7.296;2023-07-29T10:22:06;21.10;99.90
4399;DHT22;2213;49.720;7.296;2023-07-29T10:24:39;21.20;99.90
4399;DHT22;2213;49.720;7.296;2023-07-29T10:27:18;21.30;99.90
4399;DHT22;2213;49.720;7.296;2023-07-29T10:29:55;21.30;99.90
4399;DHT22;2213;49.720;7.296;2023-07-29T10:32:27;21.20;99.90
4399;DHT22;2213;49.720;7.296;2023-07-29T10:34:59;21.30;99.90
4399;DHT22;2213;49.720;7.296;2023-07-29T10:37:28;21.30;99.90
4399;DHT22;2213;49.720;7.296;2023-07-29T10:39:59;21.20;99.90
4399;DHT22;2213;49.720;7.296;2023-07-29T10:42:34;21.30;99.90
4399;DHT22;2213;49.720;7.296;2023-07-29T10:45:22;21.40;99.90
4399;DHT22;2213;49.720;7.296;2023-07-29T10:47:52;21.60;99.90
4399;DHT22;2213;49.720;7.296;2023-07-29T10:50:23;21.40;99.90
4399;DHT22;2213;49.720;7.296;2023-07-29T10:52:52;21.40;99.90
4399;DHT22;2213;49.720;7.296;2023-07-29T10:55:27;21.50;99.90
4399;DHT22;2213;49.720;7.296;2023-07-29T10:58:08;21.40;99.90
4399;DHT22;2213;49.720;7.296;2023-07-29T11:00:43;21.50;99.90
4399;DHT22;2213;49.720;7.296;2023-07-29T11:03:14;21.40;99.90
4399;DHT22;2213;49.720;7.296;2023-07-29T11:06:07;21.50;99.90
4399;DHT22;2213;49.720;7.296;2023-07-29T11:08:37;21.50;99.90
4399;DHT22;2213;49.720;7.296;2023-07-29T11:11:12;21.70;99.90
4399;DHT22;2213;49.720;7.296;2023-07-29T11:13:44;21.60;99.90
4399;DHT22;2213;49.720;7.296;2023-07-29T11:16:17;21.70;99.90
4399;DHT22;2213;49.720;7.296;2023-07-29T11:18:49;21.70;99.90
4399;DHT22;2213;49.720;7.296;2023-07-29T11:21:18;21.80;99.90
4399;DHT22;2213;49.720;7.296;2023-07-29T11:23:49;21.90;99.90
4399;DHT22;2213;49.720;7.296;2023-07-29T11:26:22;21.80;99.90
4399;DHT22;2213;49.720;7.296;2023-07-29T11:28:52;21.80;99.90
4399;DHT22;2213;49.720;7.296;2023-07-29T11:31:39;21.80;99.90
4399;DHT22;2213;49.720;7.296;2023-07-29T11:34:08;21.90;99.90
4399;DHT22;2213;49.720;7.296;2023-07-29T11:36:45;21.80;99.90
4399;DHT22;2213;49.720;7.296;2023-07-29T11:39:15;21.90;99.90
4399;DHT22;2213;49.720;7.296;2023-07-29T11:41:46;21.90;99.90
4399;DHT22;2213;49.720;7.296;2023-07-29T11:44:16;22.10;99.90
4399;DHT22;2213;49.720;7.296;2023-07-29T11:46:48;22.10;99.90
4399;DHT22;2213;49.720;7.296;2023-07-29T11:49:19;22.20;99.90
4399;DHT22;2213;49.720;7.296;2023-07-29T11:51:49;22.20;99.90
4399;DHT22;2213;49.720;7.296;2023-07-29T11:54:21;22.50;99.90
4399;DHT22;2213;49.720;7.296;2023-07-29T11:56:51;22.40;99.90
4399;DHT22;2213;49.720;7.296;2023-07-29T11:59:21;22.40;99.90
4399;DHT22;2213;49.720;7.296;2023-07-29T12:01:53;22.30;99.90
4399;DHT22;2213;49.720;7.296;2023-07-29T12:04:23;22.40;99.90
4399;DHT22;2213;49.720;7.296;2023-07-29T12:06:54;22.40;99.90
4399;DHT22;2213;49.720;7.296;2023-07-29T12:09:25;22.60;99.90
4399;DHT22;2213;49.720;7.296;2023-07-29T12:11:56;22.70;99.90
4399;DHT22;2213;49.720;7.296;2023-07-29T12:14:26;22.70;99.90
4399;DHT22;2213;49.720;7.296;2023-07-29T12:17:00;22.80;99.90
4399;DHT22;2213;49.720;7.296;2023-07-29T12:19:33;22.80;99.90
4399;DHT22;2213;49.720;7.296;2023-07-29T12:22:04;22.80;99.90
4399;DHT22;2213;49.720;7.296;2023-07-29T12:24:39;22.80;99.90
4399;DHT22;2213;49.720;7.296;2023-07-29T12:27:11;22.90;99.90
4399;DHT22;2213;49.720;7.296;2023-07-29T12:29:42;22.90;99.90
4399;DHT22;2213;49.720;7.296;2023-07-29T12:32:15;22.90;99.90
4399;DHT22;2213;49.720;7.296;2023-07-29T12:34:45;22.90;99.90
4399;DHT22;2213;49.720;7.296;2023-07-29T12:37:16;23.10;99.90
4399;DHT22;2213;49.720;7.296;2023-07-29T12:39:50;23.00;99.90
4399;DHT22;2213;49.720;7.296;2023-07-29T12:42:20;23.20;99.90
4399;DHT22;2213;49.720;7.296;2023-07-29T12:44:51;23.30;99.90
4399;DHT22;2213;49.720;7.296;2023-07-29T12:47:23;23.30;99.90
4399;DHT22;2213;49.720;7.296;2023-07-29T12:49:53;23.50;99.90
4399;DHT22;2213;49.720;7.296;2023-07-29T12:52:23;23.60;99.90
4399;DHT22;2213;49.720;7.296;2023-07-29T12:54:52;23.50;99.80
4399;DHT22;2213;49.720;7.296;2023-07-29T12:57:23;23.50;99.70
4399;DHT22;2213;49.720;7.296;2023-07-29T12:59:54;23.50;99.90
4399;DHT22;2213;49.720;7.296;2023-07-29T13:02:25;23.50;99.90
4399;DHT22;2213;49.720;7.296;2023-07-29T13:04:54;23.70;99.90
4399;DHT22;2213;49.720;7.296;2023-07-29T13:07:24;23.80;99.90
4399;DHT22;2213;49.720;7.296;2023-07-29T13:09:53;23.70;99.90
4399;DHT22;2213;49.720;7.296;2023-07-29T13:12:23;23.60;99.90
4399;DHT22;2213;49.720;7.296;2023-07-29T13:14:54;23.40;99.90
4399;DHT22;2213;49.720;7.296;2023-07-29T13:17:25;23.40;99.90
4399;DHT22;2213;49.720;7.296;2023-07-29T13:19:54;23.60;99.90
4399;DHT22;2213;49.720;7.296;2023-07-29T13:22:24;23.60;99.90
4399;DHT22;2213;49.720;7.296;2023-07-29T13:24:54;23.40;99.90
4399;DHT22;2213;49.720;7.296;2023-07-29T13:27:23;23.40;99.90
4399;DHT22;2213;49.720;7.296;2023-07-29T13:29:54;23.60;99.90
4399;DHT22;2213;49.720;7.296;2023-07-29T13:32:26;23.70;99.90
4399;DHT22;2213;49.720;7.296;2023-07-29T13:34:56;23.50;99.90
4399;DHT22;2213;49.720;7.296;2023-07-29T13:37:26;23.60;99.90
4399;DHT22;2213;49.720;7.296;2023-07-29T13:39:56;23.60;99.90
4399;DHT22;2213;49.720;7.296;2023-07-29T13:42:26;23.70;99.90
4399;DHT22;2213;49.720;7.296;2023-07-29T13:44:57;23.80;99.90
4399;DHT22;2213;49.720;7.296;2023-07-29T13:47:28;23.70;99.90
4399;DHT22;2213;49.720;7.296;2023-07-29T13:50:00;23.80;99.90
4399;DHT22;2213;49.720;7.296;2023-07-29T13:52:30;23.80;99.90
4399;DHT22;2213;49.720;7.296;2023-07-29T13:55:01;24.00;99.90
4399;DHT22;2213;49.720;7.296;2023-07-29T13:57:31;24.00;99.60
4399;DHT22;2213;49.720;7.296;2023-07-29T14:00:01;24.10;98.40
4399;DHT22;2213;49.720;7.296;2023-07-29T14:02:33;24.20;98.60
4399;DHT22;2213;49.720;7.296;2023-07-29T14:05:03;24.10;97.40
4399;DHT22;2213;49.720;7.296;2023-07-29T14:07:32;24.20;98.30
4399;DHT22;2213;49.720;7.296;2023-07-29T14:10:04;24.40;98.90
4399;DHT22;2213;49.720;7.296;2023-07-29T14:12:35;24.50;98.50
4399;DHT22;2213;49.720;7.296;2023-07-29T14:15:08;24.60;99.00
4399;DHT22;2213;49.720;7.296;2023-07-29T14:17:39;24.60;98.90
4399;DHT22;2213;49.720;7.296;2023-07-29T14:20:10;24.70;98.10
4399;DHT22;2213;49.720;7.296;2023-07-29T14:22:41;24.90;98.10
4399;DHT22;2213;49.720;7.296;2023-07-29T14:25:12;24.90;98.30
4399;DHT22;2213;49.720;7.296;2023-07-29T14:27:42;24.90;98.10
4399;DHT22;2213;49.720;7.296;2023-07-29T14:30:13;25.00;98.30
4399;DHT22;2213;49.720;7.296;2023-07-29T14:32:45;25.10;99.00
4399;DHT22;2213;49.720;7.296;2023-07-29T14:35:15;25.20;98.30
4399;DHT22;2213;49.720;7.296;2023-07-29T14:37:45;25.10;98.30
4399;DHT22;2213;49.720;7.296;2023-07-29T14:40:15;25.10;98.30
4399;DHT22;2213;49.720;7.296;2023-07-29T14:42:45;25.20;98.50
4399;DHT22;2213;49.720;7.296;2023-07-29T14:45:16;25.10;98.40
4399;DHT22;2213;49.720;7.296;2023-07-29T14:47:48;25.20;98.30
4399;DHT22;2213;49.720;7.296;2023-07-29T14:50:19;25.30;98.90
4399;DHT22;2213;49.720;7.296;2023-07-29T14:52:50;25.40;99.20
4399;DHT22;2213;49.720;7.296;2023-07-29T14:55:20;25.50;98.10
4399;DHT22;2213;49.720;7.296;2023-07-29T14:57:52;25.60;97.80
4399;DHT22;2213;49.720;7.296;2023-07-29T15:00:23;25.60;97.60
4399;DHT22;2213;49.720;7.296;2023-07-29T15:02:54;25.90;97.30
4399;DHT22;2213;49.720;7.296;2023-07-29T15:05:23;25.80;97.30
4399;DHT22;2213;49.720;7.296;2023-07-29T15:07:52;25.90;97.00
4399;DHT22;2213;49.720;7.296;2023-07-29T15:10:23;25.90;97.30
4399;DHT22;2213;49.720;7.296;2023-07-29T15:12:53;25.80;97.20
4399;DHT22;2213;49.720;7.296;2023-07-29T15:15:22;25.80;97.50
4399;DHT22;2213;49.720;7.296;2023-07-29T15:17:54;25.90;97.00
4399;DHT22;2213;49.720;7.296;2023-07-29T15:20:24;26.00;97.00
4399;DHT22;2213;49.720;7.296;2023-07-29T15:22:53;26.10;97.20
4399;DHT22;2213;49.720;7.296;2023-07-29T15:25:24;26.00;97.50
4399;DHT22;2213;49.720;7.296;2023-07-29T15:27:53;26.20;97.10
4399;DHT22;2213;49.720;7.296;2023-07-29T15:30:26;26.20;97.70
4399;DHT22;2213;49.720;7.296;2023-07-29T15:32:56;26.20;97.40
4399;DHT22;2213;49.720;7.296;2023-07-29T15:35:27;26.10;97.40
4399;DHT22;2213;49.720;7.296;2023-07-29T15:37:57;26.10;97.10
4399;DHT22;2213;49.720;7.296;2023-07-29T15:40:28;25.90;96.90
4399;DHT22;2213;49.720;7.296;2023-07-29T15:42:57;25.90;97.00
4399;DHT22;2213;49.720;7.296;2023-07-29T15:45:49;25.80;97.10
4399;DHT22;2213;49.720;7.296;2023-07-29T15:48:20;25.70;97.10
4399;DHT22;2213;49.720;7.296;2023-07-29T15:50:49;25.60;96.90
4399;DHT22;2213;49.720;7.296;2023-07-29T15:53:19;25.60;97.10
4399;DHT22;2213;49.720;7.296;2023-07-29T15:55:47;25.40;97.00
4399;DHT22;2213;49.720;7.296;2023-07-29T15:58:19;25.50;97.30
4399;DHT22;2213;49.720;7.296;2023-07-29T16:00:51;25.40;97.50
4399;DHT22;2213;49.720;7.296;2023-07-29T16:03:23;25.40;97.60
4399;DHT22;2213;49.720;7.296;2023-07-29T16:05:52;25.30;97.50
4399;DHT22;2213;49.720;7.296;2023-07-29T16:08:21;25.20;97.90
4399;DHT22;2213;49.720;7.296;2023-07-29T16:10:51;25.20;98.40
4399;DHT22;2213;49.720;7.296;2023-07-29T16:13:21;25.10;98.10
4399;DHT22;2213;49.720;7.296;2023-07-29T16:15:52;25.30;98.00
4399;DHT22;2213;49.720;7.296;2023-07-29T16:18:25;25.20;98.20
4399;DHT22;2213;49.720;7.296;2023-07-29T16:20:55;25.00;98.40
4399;DHT22;2213;49.720;7.296;2023-07-29T16:23:29;25.00;98.40
4399;DHT22;2213;49.720;7.296;2023-07-29T16:25:59;24.90;98.70
4399;DHT22;2213;49.720;7.296;2023-07-29T16:28:29;24.90;98.80